createdAt,value
2022-10-12T00:00:39.606Z,55.50
2022-10-12T00:03:07.559Z,56.10
2022-10-12T00:05:35.492Z,56.20
2022-10-12T00:08:05.048Z,55.60
2022-10-12T00:10:32.987Z,56.10
2022-10-12T00:13:01.528Z,56.80
2022-10-12T00:15:29.455Z,57.40
2022-10-12T00:17:57.324Z,57.10
2022-10-12T00:20:25.265Z,55.10
2022-10-12T00:22:53.184Z,54.60
2022-10-12T00:25:22.507Z,54.50
2022-10-12T00:27:50.483Z,53.30
2022-10-12T00:30:18.698Z,54.40
2022-10-12T00:32:46.624Z,54.70
2022-10-12T00:35:14.597Z,55.90
2022-10-12T00:37:42.493Z,56.30
2022-10-12T00:40:11.833Z,56.70
2022-10-12T00:42:41.145Z,55.50
2022-10-12T00:45:10.479Z,55.50
2022-10-12T00:47:41.992Z,56.80
2022-10-12T00:50:14.200Z,57.00
2022-10-12T00:52:46.247Z,56.80
2022-10-12T00:55:18.592Z,56.80
2022-10-12T00:57:49.262Z,56.70
2022-10-12T01:00:18.378Z,57.60
2022-10-12T01:02:48.370Z,57.50
2022-10-12T01:05:17.482Z,56.80
2022-10-12T01:07:45.553Z,56.80
2022-10-12T01:10:13.970Z,56.80
2022-10-12T01:12:43.828Z,55.80
2022-10-12T01:15:14.109Z,55.60
2022-10-12T01:17:49.673Z,54.60
2022-10-12T01:20:40.578Z,55.80
2022-10-12T01:23:36.924Z,56.50
2022-10-12T01:26:27.637Z,56.60
2022-10-12T01:29:06.736Z,56.50
2022-10-12T01:31:39.239Z,58.50
2022-10-12T01:34:15.054Z,58.30
2022-10-12T01:36:46.473Z,58.50
2022-10-12T01:39:19.217Z,58.20
2022-10-12T01:41:50.526Z,57.70
2022-10-12T01:44:22.362Z,57.10
2022-10-12T01:46:53.441Z,58.20
2022-10-12T01:49:25.870Z,59.10
2022-10-12T01:52:16.653Z,58.80
2022-10-12T01:55:10.255Z,57.90
2022-10-12T01:57:51.787Z,57.60
2022-10-12T02:00:20.134Z,58.40
2022-10-12T02:03:00.199Z,58.20
2022-10-12T02:05:37.787Z,58.60
2022-10-12T02:08:12.984Z,57.00
2022-10-12T02:10:45.439Z,56.90
2022-10-12T02:13:16.324Z,56.40
2022-10-12T02:15:45.389Z,56.30
2022-10-12T02:18:19.025Z,56.30
2022-10-12T02:20:49.154Z,56.70
2022-10-12T02:23:18.099Z,57.80
2022-10-12T02:25:47.320Z,57.40
2022-10-12T02:28:18.389Z,59.70
2022-10-12T02:30:51.765Z,58.30
2022-10-12T02:33:26.595Z,58.80
2022-10-12T02:35:59.920Z,57.80
2022-10-12T02:38:33.000Z,57.40
2022-10-12T02:41:05.845Z,57.00
2022-10-12T02:43:38.779Z,57.30
2022-10-12T02:46:10.479Z,57.00
2022-10-12T02:48:41.725Z,56.40
2022-10-12T02:51:12.025Z,56.90
2022-10-12T02:53:40.471Z,57.00
2022-10-12T02:56:11.856Z,57.70
2022-10-12T02:58:39.773Z,57.70
2022-10-12T03:01:07.889Z,57.70
2022-10-12T03:03:35.867Z,55.90
2022-10-12T03:06:05.828Z,55.80
2022-10-12T03:08:33.763Z,56.60
2022-10-12T03:11:03.604Z,55.60
2022-10-12T03:13:32.011Z,56.50
2022-10-12T03:16:03.621Z,56.50
2022-10-12T03:18:31.958Z,57.10
2022-10-12T03:20:59.876Z,57.70
2022-10-12T03:23:29.455Z,57.90
2022-10-12T03:25:57.495Z,58.70
2022-10-12T03:28:25.511Z,59.00
2022-10-12T03:30:53.564Z,58.80
2022-10-12T03:33:21.554Z,58.50
2022-10-12T03:35:49.820Z,58.00
2022-10-12T03:38:18.819Z,56.70
2022-10-12T03:40:48.690Z,56.60
2022-10-12T03:43:17.254Z,57.10
2022-10-12T03:45:45.440Z,56.50
2022-10-12T03:48:13.300Z,58.30
2022-10-12T03:50:41.227Z,59.80
2022-10-12T03:53:09.197Z,58.40
2022-10-12T03:55:37.114Z,58.20
2022-10-12T03:58:06.482Z,57.90
2022-10-12T04:00:34.401Z,57.80
2022-10-12T04:03:02.598Z,57.70
2022-10-12T04:05:30.703Z,58.40
2022-10-12T04:07:59.326Z,58.30
2022-10-12T04:10:27.559Z,58.70
2022-10-12T04:12:55.438Z,59.30
2022-10-12T04:15:24.713Z,59.20
2022-10-12T04:17:52.703Z,58.60
2022-10-12T04:20:20.631Z,58.70
2022-10-12T04:22:48.540Z,59.60
2022-10-12T04:25:16.548Z,59.50
2022-10-12T04:27:44.433Z,59.10
2022-10-12T04:30:13.413Z,58.50
2022-10-12T04:32:42.645Z,58.20
2022-10-12T04:35:10.838Z,56.50
2022-10-12T04:37:39.276Z,55.10
2022-10-12T04:40:08.591Z,56.50
2022-10-12T04:42:36.518Z,56.50
2022-10-12T04:45:04.615Z,56.40
2022-10-12T04:47:34.294Z,56.70
2022-10-12T04:50:03.713Z,55.40
2022-10-12T04:52:31.590Z,56.20
2022-10-12T04:54:59.493Z,58.10
2022-10-12T04:57:27.413Z,59.60
2022-10-12T04:59:55.333Z,59.60
2022-10-12T05:02:23.298Z,59.40
2022-10-12T05:04:51.519Z,58.60
2022-10-12T05:07:20.771Z,59.60
2022-10-12T05:09:48.667Z,59.20
2022-10-12T05:12:16.585Z,58.80
2022-10-12T05:14:45.627Z,57.40
2022-10-12T05:17:13.550Z,56.00
2022-10-12T05:19:41.446Z,57.10
2022-10-12T05:22:09.351Z,56.40
2022-10-12T05:24:38.582Z,57.20
2022-10-12T05:27:06.582Z,59.00
2022-10-12T05:29:34.456Z,59.50
2022-10-12T05:32:02.331Z,59.10
2022-10-12T05:34:30.253Z,59.30
2022-10-12T05:36:58.623Z,59.80
2022-10-12T05:39:26.541Z,59.30
2022-10-12T05:41:55.931Z,56.30
2022-10-12T05:44:23.841Z,57.10
2022-10-12T05:46:51.732Z,57.20
2022-10-12T05:49:19.613Z,58.10
2022-10-12T05:51:47.562Z,58.70
2022-10-12T05:54:15.523Z,59.60
2022-10-12T05:56:43.575Z,59.10
2022-10-12T05:59:13.486Z,58.50
2022-10-12T06:01:41.439Z,58.40
2022-10-12T06:04:09.559Z,57.60
2022-10-12T06:06:37.464Z,57.80
2022-10-12T06:09:05.422Z,57.70
2022-10-12T06:11:36.291Z,57.10
2022-10-12T06:14:04.742Z,56.80
2022-10-12T06:16:34.187Z,55.70
2022-10-12T06:19:02.185Z,55.60
2022-10-12T06:21:34.259Z,56.10
2022-10-12T06:24:02.779Z,56.60
2022-10-12T06:26:30.735Z,55.70
2022-10-12T06:29:00.687Z,55.20
2022-10-12T06:31:28.872Z,54.80
2022-10-12T06:33:58.150Z,54.10
2022-10-12T06:36:26.190Z,54.10
2022-10-12T06:38:54.185Z,53.80
2022-10-12T06:41:22.096Z,53.90
2022-10-12T06:43:50.015Z,54.20
2022-10-12T06:46:18.047Z,53.20
2022-10-12T06:48:45.950Z,52.90
2022-10-12T06:51:15.268Z,51.30
2022-10-12T06:53:43.125Z,51.20
2022-10-12T06:56:12.376Z,51.00
2022-10-12T06:58:40.993Z,50.90
2022-10-12T07:01:10.701Z,51.90
2022-10-12T07:03:38.770Z,51.00
2022-10-12T07:06:08.426Z,51.60
2022-10-12T07:08:37.767Z,52.00
2022-10-12T07:11:07.414Z,52.40
2022-10-12T07:13:35.412Z,52.40
2022-10-12T07:16:03.689Z,52.80
2022-10-12T07:18:31.592Z,54.10
2022-10-12T07:20:59.818Z,54.10
2022-10-12T07:23:27.988Z,55.60
2022-10-12T07:25:57.287Z,56.30
2022-10-12T07:28:26.019Z,55.10
2022-10-12T07:30:54.464Z,55.30
2022-10-12T07:33:22.391Z,56.20
2022-10-12T07:36:13.290Z,56.90
2022-10-12T07:38:44.673Z,56.90
2022-10-12T07:41:14.585Z,56.90
2022-10-12T07:43:43.092Z,57.50
2022-10-12T07:46:11.456Z,58.50
2022-10-12T07:48:44.492Z,58.40
2022-10-12T07:51:16.986Z,59.40
2022-10-12T07:53:44.921Z,59.70
2022-10-12T07:56:15.992Z,60.00
2022-10-12T07:58:44.809Z,61.80
2022-10-12T08:01:12.817Z,62.60
2022-10-12T08:03:40.862Z,60.00
2022-10-12T08:06:13.526Z,58.50
2022-10-12T08:08:42.081Z,56.30
2022-10-12T08:11:10.798Z,54.00
2022-10-12T08:13:40.723Z,52.00
2022-10-12T08:16:11.922Z,50.10
2022-10-12T08:18:39.911Z,48.90
2022-10-12T08:21:10.158Z,49.50
2022-10-12T08:23:38.731Z,48.10
2022-10-12T08:26:07.626Z,46.50
2022-10-12T08:28:36.886Z,45.10
2022-10-12T08:31:09.696Z,44.10
2022-10-12T08:33:37.959Z,45.40
2022-10-12T08:36:07.146Z,43.70
2022-10-12T08:38:38.499Z,42.20
2022-10-12T08:41:19.820Z,41.80
2022-10-12T08:43:57.676Z,40.90
2022-10-12T08:46:27.792Z,41.90
2022-10-12T08:49:01.709Z,43.70
2022-10-12T08:51:34.178Z,42.00
2022-10-12T08:54:07.387Z,40.20
2022-10-12T08:56:35.896Z,41.00
2022-10-12T08:59:04.493Z,40.10
2022-10-12T09:01:38.485Z,41.80
2022-10-12T09:04:21.354Z,39.80
2022-10-12T09:06:57.421Z,39.40
2022-10-12T09:09:43.086Z,39.70
2022-10-12T09:12:26.336Z,40.40
2022-10-12T09:15:00.379Z,42.20
2022-10-12T09:17:33.393Z,38.60
2022-10-12T09:20:06.078Z,41.30
2022-10-12T09:22:35.674Z,41.00
2022-10-12T09:25:04.549Z,38.90
2022-10-12T09:27:32.990Z,39.70
2022-10-12T09:30:04.373Z,41.00
2022-10-12T09:32:52.930Z,38.90
2022-10-12T09:35:21.109Z,41.20
2022-10-12T09:37:53.901Z,40.40
2022-10-12T09:40:25.070Z,41.70
2022-10-12T09:42:54.800Z,38.60
2022-10-12T09:45:24.007Z,38.70
2022-10-12T09:48:17.294Z,39.70
2022-10-12T09:50:49.992Z,38.90
2022-10-12T09:53:26.761Z,38.30
2022-10-12T09:55:57.690Z,35.40
2022-10-12T09:58:27.640Z,37.90
2022-10-12T10:01:21.645Z,37.50
2022-10-12T10:04:06.901Z,37.40
2022-10-12T10:06:34.959Z,38.50
2022-10-12T10:09:03.101Z,37.00
2022-10-12T10:11:32.483Z,37.70
2022-10-12T10:14:02.311Z,37.10
2022-10-12T10:16:31.730Z,36.80
2022-10-12T10:19:02.966Z,39.50
2022-10-12T10:21:35.027Z,37.50
2022-10-12T10:24:05.098Z,38.00
2022-10-12T10:26:52.920Z,37.50
2022-10-12T10:29:34.050Z,37.00
2022-10-12T10:32:13.050Z,37.20
2022-10-12T10:34:44.160Z,38.40
2022-10-12T10:37:21.039Z,39.00
2022-10-12T10:39:53.407Z,38.80
2022-10-12T10:42:23.720Z,37.80
2022-10-12T10:44:53.992Z,38.80
2022-10-12T10:47:21.974Z,38.70
2022-10-12T10:49:57.246Z,39.30
2022-10-12T10:52:28.788Z,38.70
2022-10-12T10:55:20.802Z,38.20
2022-10-12T10:57:58.441Z,38.70
2022-10-12T11:00:38.560Z,39.20
2022-10-12T11:03:14.071Z,37.30
2022-10-12T11:05:47.583Z,37.80
2022-10-12T11:08:21.567Z,36.70
2022-10-12T11:10:53.682Z,37.00
2022-10-12T11:13:25.519Z,37.60
2022-10-12T11:15:58.729Z,36.60
2022-10-12T11:18:33.114Z,36.90
2022-10-12T11:21:05.879Z,37.60
2022-10-12T11:23:41.550Z,38.00
2022-10-12T11:26:16.853Z,36.20
2022-10-12T11:28:45.596Z,36.40
2022-10-12T11:31:21.206Z,37.30
2022-10-12T11:33:50.711Z,36.20
2022-10-12T11:36:24.195Z,37.10
2022-10-12T11:38:56.649Z,36.80
2022-10-12T11:41:35.737Z,36.20
2022-10-12T11:44:08.493Z,36.50
2022-10-12T11:46:48.791Z,36.80
2022-10-12T11:49:24.201Z,36.00
2022-10-12T11:51:57.499Z,38.00
2022-10-12T11:54:31.817Z,38.70
2022-10-12T11:57:04.812Z,37.00
2022-10-12T11:59:37.700Z,37.50
2022-10-12T12:02:17.178Z,37.10
2022-10-12T12:04:47.191Z,37.60
2022-10-12T12:07:48.606Z,37.10
2022-10-12T12:10:45.218Z,36.90
2022-10-12T12:13:23.283Z,37.10
2022-10-12T12:16:33.871Z,38.10
2022-10-12T12:19:15.451Z,38.20
2022-10-12T12:22:23.449Z,37.40
2022-10-12T12:25:16.878Z,39.20
2022-10-12T12:27:47.743Z,38.50
2022-10-12T12:30:29.809Z,37.90
2022-10-12T12:32:59.816Z,38.10
2022-10-12T12:35:32.047Z,38.90
2022-10-12T12:38:20.693Z,38.60
2022-10-12T12:41:02.847Z,38.60
2022-10-12T12:43:56.397Z,38.60
2022-10-12T12:46:27.707Z,39.90
2022-10-12T12:49:04.514Z,40.00
2022-10-12T12:51:41.801Z,40.00
2022-10-12T12:54:17.708Z,38.60
2022-10-12T12:57:18.465Z,40.30
2022-10-12T13:00:11.961Z,39.50
2022-10-12T13:03:01.499Z,37.40
2022-10-12T13:06:03.827Z,37.00
2022-10-12T13:08:42.041Z,38.40
2022-10-12T13:11:35.175Z,37.70
2022-10-12T13:14:16.122Z,39.00
2022-10-12T13:19:48.276Z,37.80
2022-10-12T13:22:21.969Z,38.00
2022-10-12T13:24:52.311Z,38.00
2022-10-12T13:27:24.387Z,37.00
2022-10-12T13:29:59.311Z,37.70
2022-10-12T13:32:35.225Z,38.00
2022-10-12T13:35:07.158Z,39.00
2022-10-12T13:37:36.172Z,39.50
2022-10-12T13:40:04.452Z,39.60
2022-10-12T13:42:36.577Z,39.60
2022-10-12T13:45:09.591Z,39.10
2022-10-12T13:47:43.581Z,39.40
2022-10-12T13:50:19.239Z,39.20
2022-10-12T13:52:54.523Z,39.60
2022-10-12T13:55:29.114Z,41.30
2022-10-12T13:57:57.657Z,41.60
2022-10-12T14:00:28.419Z,41.30
2022-10-12T14:02:58.755Z,41.30
2022-10-12T14:05:29.107Z,40.50
2022-10-12T14:08:00.496Z,40.40
2022-10-12T14:10:32.600Z,41.10
2022-10-12T14:13:04.151Z,41.70
2022-10-12T14:15:36.207Z,41.80
2022-10-12T14:18:05.043Z,42.90
2022-10-12T14:20:37.189Z,42.70
2022-10-12T14:23:14.089Z,43.30
2022-10-12T14:25:54.002Z,43.40
2022-10-12T14:28:29.867Z,43.30
2022-10-12T14:30:59.434Z,43.30
2022-10-12T14:33:28.849Z,43.40
2022-10-12T14:36:15.333Z,43.80
2022-10-12T14:38:45.665Z,43.60
2022-10-12T14:41:34.213Z,43.20
2022-10-12T14:44:12.835Z,44.00
2022-10-12T14:46:45.595Z,44.10
2022-10-12T14:49:18.577Z,44.70
2022-10-12T14:51:47.115Z,44.60
2022-10-12T14:54:15.128Z,45.00
2022-10-12T14:56:43.055Z,45.10
2022-10-12T14:59:10.949Z,45.40
2022-10-12T15:01:41.694Z,45.20
2022-10-12T15:04:14.279Z,45.30
2022-10-12T15:06:44.876Z,46.80
2022-10-12T15:09:16.486Z,47.00
2022-10-12T15:11:44.407Z,47.30
2022-10-12T15:14:12.648Z,47.20
2022-10-12T15:16:40.601Z,47.40
2022-10-12T15:19:08.528Z,48.60
2022-10-12T15:21:37.851Z,49.60
2022-10-12T15:24:15.203Z,49.90
2022-10-12T15:26:43.113Z,50.40
2022-10-12T15:29:11.075Z,50.80
2022-10-12T15:31:38.972Z,51.30
2022-10-12T15:34:13.190Z,51.40
2022-10-12T15:36:43.006Z,51.60
2022-10-12T15:39:10.921Z,52.20
2022-10-12T15:41:38.801Z,52.80
2022-10-12T15:44:07.756Z,53.00
2022-10-12T15:46:35.666Z,53.00
2022-10-12T15:49:03.623Z,52.80
2022-10-12T15:51:31.669Z,53.60
2022-10-12T15:54:00.991Z,54.40
2022-10-12T15:56:29.189Z,55.00
2022-10-12T15:58:57.079Z,55.60
2022-10-12T16:01:25.037Z,55.50
2022-10-12T16:03:53.045Z,55.60
2022-10-12T16:06:21.322Z,55.90
2022-10-12T16:08:49.281Z,56.20
2022-10-12T16:11:19.491Z,56.80
2022-10-12T16:13:56.264Z,57.70
2022-10-12T16:16:27.439Z,57.40
2022-10-12T16:18:55.359Z,57.40
2022-10-12T16:21:23.299Z,58.50
2022-10-12T16:23:51.259Z,58.80
2022-10-12T16:26:20.581Z,59.70
2022-10-12T16:28:48.837Z,59.00
2022-10-12T16:31:18.158Z,60.20
2022-10-12T16:33:46.531Z,59.40
2022-10-12T16:36:16.331Z,59.40
2022-10-12T16:38:45.085Z,60.00
2022-10-12T16:41:14.790Z,59.80
2022-10-12T16:43:44.648Z,59.50
2022-10-12T16:46:12.584Z,59.90
2022-10-12T16:48:40.499Z,60.40
2022-10-12T16:51:09.628Z,60.70
2022-10-12T16:53:37.775Z,61.00
2022-10-12T16:56:06.090Z,61.20
2022-10-12T16:58:34.053Z,59.80
2022-10-12T17:01:11.010Z,60.20
2022-10-12T17:03:39.154Z,60.40
2022-10-12T17:06:07.914Z,60.20
2022-10-12T17:08:38.870Z,60.60
2022-10-12T17:11:08.230Z,61.00
2022-10-12T17:13:37.530Z,60.70
2022-10-12T17:16:26.391Z,59.90
2022-10-12T17:18:59.465Z,59.80
2022-10-12T17:21:28.224Z,59.30
2022-10-12T17:23:57.980Z,61.30
2022-10-12T17:26:26.136Z,61.90
2022-10-12T17:28:54.250Z,61.80
2022-10-12T17:31:22.258Z,61.80
2022-10-12T17:33:50.209Z,62.70
2022-10-12T17:36:19.485Z,62.30
2022-10-12T17:38:47.365Z,62.30
2022-10-12T17:41:15.300Z,61.80
2022-10-12T17:43:43.215Z,63.00
2022-10-12T17:46:11.101Z,63.30
2022-10-12T17:48:39.081Z,62.00
2022-10-12T17:51:09.883Z,62.10
2022-10-12T17:53:39.565Z,62.50
2022-10-12T17:56:09.251Z,62.80
2022-10-12T17:58:37.367Z,62.40
2022-10-12T18:01:06.477Z,62.20
2022-10-12T18:03:34.420Z,61.90
2022-10-12T18:06:06.226Z,62.00
2022-10-12T18:08:34.319Z,61.90
2022-10-12T18:11:05.555Z,60.90
2022-10-12T18:13:35.221Z,60.20
2022-10-12T18:16:03.431Z,62.00
2022-10-12T18:18:31.321Z,63.10
2022-10-12T18:20:59.244Z,62.90
2022-10-12T18:23:27.226Z,63.40
2022-10-12T18:25:55.113Z,64.50
2022-10-12T18:28:24.418Z,63.60
2022-10-12T18:30:52.386Z,60.80
2022-10-12T18:33:20.725Z,60.80
2022-10-12T18:35:48.855Z,61.70
2022-10-12T18:38:16.765Z,62.00
2022-10-12T18:40:44.833Z,60.50
2022-10-12T18:43:12.723Z,61.70
2022-10-12T18:45:44.186Z,59.80
2022-10-12T18:48:12.184Z,60.10
2022-10-12T18:50:40.599Z,62.40
2022-10-12T18:53:08.573Z,63.00
2022-10-12T18:55:37.866Z,62.20
2022-10-12T18:58:06.028Z,62.30
2022-10-12T19:00:34.019Z,63.30
2022-10-12T19:03:03.333Z,64.60
2022-10-12T19:05:31.305Z,63.70
2022-10-12T19:07:59.495Z,62.30
2022-10-12T19:10:27.382Z,63.60
2022-10-12T19:12:55.306Z,61.60
2022-10-12T19:15:23.889Z,60.60
2022-10-12T19:17:51.948Z,60.60
2022-10-12T19:20:21.240Z,61.10
2022-10-12T19:22:49.246Z,60.40
2022-10-12T19:25:17.273Z,60.80
2022-10-12T19:27:45.198Z,61.70
2022-10-12T19:30:13.827Z,60.10
2022-10-12T19:32:41.708Z,62.50
2022-10-12T19:35:09.996Z,64.50
2022-10-12T19:37:39.254Z,64.70
2022-10-12T19:40:11.610Z,65.00
2022-10-12T19:42:39.506Z,65.00
2022-10-12T19:45:08.366Z,62.60
2022-10-12T19:47:36.394Z,63.70
2022-10-12T19:50:04.364Z,61.40
2022-10-12T19:52:32.251Z,63.20
2022-10-12T19:55:01.487Z,62.30
2022-10-12T19:57:29.465Z,62.90
2022-10-12T19:59:57.383Z,62.70
2022-10-12T20:02:25.379Z,63.20
2022-10-12T20:04:54.229Z,62.50
2022-10-12T20:07:22.239Z,65.20
2022-10-12T20:09:50.172Z,64.60
2022-10-12T20:12:20.050Z,64.40
2022-10-12T20:14:48.309Z,61.40
2022-10-12T20:17:16.331Z,61.10
2022-10-12T20:19:44.907Z,62.50
2022-10-12T20:22:12.807Z,62.60
2022-10-12T20:24:40.720Z,63.60
2022-10-12T20:27:08.655Z,63.80
2022-10-12T20:29:37.934Z,62.00
2022-10-12T20:32:06.379Z,60.80
2022-10-12T20:34:34.571Z,61.40
2022-10-12T20:37:02.506Z,61.50
2022-10-12T20:39:30.443Z,61.10
2022-10-12T20:41:58.373Z,62.60
2022-10-12T20:44:26.289Z,63.10
2022-10-12T20:46:55.646Z,62.90
2022-10-12T20:49:23.581Z,62.90
2022-10-12T20:51:51.502Z,63.60
2022-10-12T20:54:19.462Z,63.90
2022-10-12T20:56:51.828Z,62.40
2022-10-12T20:59:19.761Z,62.60
2022-10-12T21:01:47.813Z,62.30
2022-10-12T21:04:17.093Z,61.40
2022-10-12T21:06:44.970Z,60.10
2022-10-12T21:09:14.852Z,60.80
2022-10-12T21:11:43.656Z,61.90
2022-10-12T21:14:12.932Z,62.20
2022-10-12T21:16:40.844Z,62.50
2022-10-12T21:19:08.878Z,63.10
2022-10-12T21:21:38.152Z,62.40
2022-10-12T21:24:06.454Z,62.20
2022-10-12T21:26:34.426Z,61.30
2022-10-12T21:29:03.234Z,62.00
2022-10-12T21:31:32.820Z,62.50
2022-10-12T21:34:01.708Z,61.20
2022-10-12T21:36:30.959Z,61.70
2022-10-12T21:39:00.243Z,61.50
2022-10-12T21:41:30.288Z,61.60
2022-10-12T21:43:59.073Z,61.50
2022-10-12T21:46:29.630Z,61.80
2022-10-12T21:48:59.565Z,63.80
2022-10-12T21:51:28.925Z,64.50
2022-10-12T21:53:56.873Z,64.50
2022-10-12T21:56:28.058Z,66.10
2022-10-12T21:58:58.484Z,65.80
2022-10-12T22:01:28.537Z,66.00
2022-10-12T22:04:00.345Z,65.70
2022-10-12T22:06:29.811Z,63.30
2022-10-12T22:08:59.684Z,63.50
2022-10-12T22:11:31.074Z,62.70
2022-10-12T22:14:01.038Z,64.20
2022-10-12T22:16:30.149Z,63.90
2022-10-12T22:18:58.966Z,64.90
2022-10-12T22:21:27.434Z,66.70
2022-10-12T22:23:56.017Z,67.60
2022-10-12T22:26:25.003Z,65.20
2022-10-12T22:28:54.320Z,63.40
2022-10-12T22:31:23.553Z,65.30
2022-10-12T22:33:52.214Z,64.60
2022-10-12T22:36:20.615Z,64.70
2022-10-12T22:38:48.522Z,65.80
2022-10-12T22:41:18.125Z,65.00
2022-10-12T22:43:46.053Z,64.30
2022-10-12T22:46:15.335Z,63.90
2022-10-12T22:48:43.268Z,62.60
2022-10-12T22:51:12.954Z,63.60
2022-10-12T22:53:40.846Z,61.60
2022-10-12T22:56:14.384Z,61.50
2022-10-12T22:58:42.439Z,62.10
2022-10-12T23:01:12.698Z,60.90
2022-10-12T23:03:42.503Z,60.40
2022-10-12T23:06:12.297Z,60.70
2022-10-12T23:08:40.725Z,60.20
2022-10-12T23:11:11.141Z,60.70
2022-10-12T23:13:39.654Z,60.80
2022-10-12T23:16:10.669Z,62.30
2022-10-12T23:18:39.087Z,61.60
2022-10-12T23:21:10.091Z,61.90
2022-10-12T23:23:39.635Z,63.30
2022-10-12T23:26:09.338Z,64.70
2022-10-12T23:28:37.875Z,64.00
2022-10-12T23:31:07.020Z,63.50
2022-10-12T23:33:35.199Z,62.10
2022-10-12T23:36:05.326Z,62.90
2022-10-12T23:38:36.118Z,62.90
2022-10-12T23:41:04.740Z,64.00
2022-10-12T23:43:33.197Z,64.90
2022-10-12T23:46:01.238Z,66.20
2022-10-12T23:48:29.471Z,65.00
2022-10-12T23:50:57.469Z,65.60
2022-10-12T23:53:26.323Z,66.40
2022-10-12T23:55:55.623Z,65.80
2022-10-12T23:58:23.551Z,65.30
